Flight Track Log - Related Links

Times and Time Zones

All times are in EDT time to prevent confusion due to time zone crossing. See the ASQ4511 flight status page for this flight to view local times or setup timezone preferences in your user account.

Time Position Orientation Groundspeed Altitude Reporting Facility
EDT Latitude Longitude Course Direction KTS MPH feet Rate Location/Type
Tue 02:56:20 PM 43.1211 -77.6911 269° West 141 162 1,600  Level Cleveland Center
Tue 02:56:39 PM 43.1208 -77.7086 241° Southwest 143 165 2,300 1,932 Climbing Cleveland Center
Tue 02:57:19 PM 43.1061 -77.7453 241° Southwest 232 267 3,500 2,200 Climbing Cleveland Center
Tue 02:57:39 PM 43.0772 -77.7461 181° South 259 298 4,500 2,710 Climbing Cleveland Center
Tue 02:58:21 PM 43.0486 -77.7033 132° Southeast 256 295 6,300 2,481 Climbing Cleveland Center
Tue 02:59:23 PM 43.0142 -77.6025 115° Southeast 278 320 8,800 1,776 Climbing Cleveland Center
Tue 03:00:26 PM 42.9781 -77.4858 113° Southeast 325 374 10,000 1,636 Climbing Cleveland Center
Tue 03:02:30 PM 42.8822 -77.1817 113° Southeast 393 452 13,900 1,968 Climbing Cleveland Center
Tue 03:03:32 PM 42.8392 -77.0447 113° Southeast 393 452 16,100 2,226 Climbing Cleveland Center
Tue 03:04:34 PM 42.7900 -76.9156 117° Southeast 389 448 18,500 2,000 Climbing Cleveland Center
Tue 03:05:29 PM 42.7461 -76.8172 121° Southeast 385 443 20,000 1,508 Climbing Boston Center
Tue 03:07:33 PM 42.6239 -76.5433 114° Southeast 385 443 23,000 968 Climbing Boston Center
Tue 03:08:35 PM 42.5631 -76.4039 121° Southeast 416 479 23,000 -97 Level Boston Center
Tue 03:09:37 PM 42.4950 -76.2575 122° Southeast 449 517 22,800 -738 Descending Boston Center
Tue 03:10:37 PM 42.4347 -76.1242 121° Southeast 455 524 21,500 -1,800 Descending Boston Center
Tue 03:11:37 PM 42.3586 -75.9572 122° Southeast 441 507 19,200 -1,240 Descending Boston Center
Tue 03:12:38 PM 42.2972 -75.8228 122° Southeast 426 490 19,000 -98 Descending Boston Center
Tue 03:13:39 PM 42.2444 -75.7089 122° Southeast 426 490 19,000  Level Boston Center
Tue 03:14:43 PM 42.1689 -75.5444 122° Southeast 426 490 19,000  Level Boston Center
Tue 03:15:43 PM 42.1064 -75.4083 122° Southeast 427 491 19,000  Level Boston Center
Tue 03:16:43 PM 42.0458 -75.2692 120° Southeast 428 493 19,000  Level Boston Center
Tue 03:17:47 PM 41.9878 -75.1144 117° Southeast 440 506 19,000  Level Boston Center
Tue 03:18:45 PM 41.9331 -74.9717 117° Southeast 434 499 19,000 -639 Level Boston Center
Tue 03:19:49 PM 41.8728 -74.8147 117° Southeast 435 501 17,700 -1,103 Descending Boston Center
Tue 03:21:50 PM 41.7750 -74.5581 109° East 352 405 15,600 -1,253 Descending Boston Center
Tue 03:22:51 PM 41.7325 -74.4489 118° Southeast 335 386 13,900 -1,824 Descending Boston Center
Tue 03:23:55 PM 41.6853 -74.3442 121° Southeast 329 379 11,800 -1,869 Descending Boston Center
Tue 03:24:53 PM 41.6069 -74.3100 162° South 274 315 10,100 -1,426 Descending Boston Center
Tue 03:25:57 PM 41.5411 -74.3358 196° South 251 289 8,900 -1,200 Descending Boston Center
Tue 03:26:58 PM 41.4747 -74.3636 197° South 250 288 7,600 -750 Descending Boston Center
Tue 03:28:29 PM 41.3667 -74.4167 200° South 263 303 7,000 -199 Descending New York TRACON
Tue 03:29:29 PM 41.3000 -74.4333 191° South 226 260 7,100 50 Climbing New York TRACON
Tue 03:30:29 PM 41.2500 -74.4667 207° Southwest 218 251 7,100  Level New York TRACON
Tue 03:31:29 PM 41.1833 -74.4833 191° South 233 268 7,100 -524 Level New York TRACON
Tue 03:32:35 PM 41.1167 -74.4667 169° South 244 281 6,000 -952 Descending New York TRACON
Tue 03:33:35 PM 41.0500 -74.4333 159° South 229 264 5,100 -434 Descending New York TRACON
Tue 03:35:07 PM 41.0011 -74.3386 124° Southeast 251 289 4,900 -79 Descending Boston Center
Tue 03:36:07 PM 40.9947 -74.2453 95° East 252 290 4,900 -97 Level Boston Center
Tue 03:37:11 PM 40.9883 -74.1594 96° East 251 289 4,700 -528 Descending Boston Center
Tue 03:38:12 PM 40.9792 -74.0686 98° East 250 288 3,800 -836 Descending Boston Center
Tue 03:39:13 PM 40.9197 -74.0356 157° South 228 262 3,000 -443 Descending Boston Center
Tue 03:40:14 PM 40.8722 -74.0492 192° South 184 212 2,900 -211 Descending Boston Center
Tue 03:41:35 PM 40.8167 -74.0833 205° Southwest 175 201 2,500 -511 Descending New York TRACON
Tue 03:42:35 PM 40.7667 -74.0667 166° South 184 212 1,700 -750 Descending New York TRACON
Tue 03:43:35 PM 40.7167 -74.0833 194° South 135 155 1,000 -600 Descending New York TRACON
Tue 03:44:35 PM 40.7000 -74.1167 237° Southwest 121 139 500 -500 Descending New York TRACON

Login

Don't have an account? Register now (free) for customized features, flight alerts, and more!